Bowerman Airport
KHQM : now visible

Airfield :











YOU CAN JOIN US ON...

 
LOGIN :

Register | Disclaimer

   EN    FR    IT 

 









Legend :    VFR   Marginal VFR   IFR   Intensive IFR   Very Intensive IFR
Visi :
Ceiling :
>= 8 km
>= 3000ft
5 to 8 km
1000 to 3000 ft
1500m to 5 km
500 to 1000 ft
800 to 1500m
200 to 500 ft
< 800m
< 200 ft
Symbols :   Thunderstorms  Fog  Heavy snow  Heavy precipitations  Wind > 20 kt






- Airport Elevation : 18 ft


KHQM - Bowerman

CURRENT METAR :
  • 200053Z AUTO 08010KT 10SM CLR 19/M04 A3002 RMK AO2 SLP170 T01941039

EXPIRED METARs :
  • 192353Z AUTO 08011G19KT 10SM CLR 20/M04 A3004 RMK AO2 SLP177 T02001039 10200 20161 58012
  • 192253Z AUTO 04009G17KT 10SM CLR 19/M04 A3005 RMK AO2 SLP180 T01941039
  • 192153Z AUTO 07016G24KT 10SM CLR 19/M03 A3007 RMK AO2 PK WND 07026/2130 SLP186 T01941033
  • 192053Z AUTO 09012G22KT 10SM CLR 19/M01 A3008 RMK AO2 PK WND 08026/2037 SLP189 T01891011 56018

TAF KHQM
Valid from the 20 at 00:00 until the 21 at 00:00 UTC


192327Z 2000/2024 05009G17KT P6SM SKC
FM200300 07006KT P6SM SKC
FM201200 09013KT P6SM SCT250
FM201700 14017G23KT P6SM BKN100
FM202100 20016G24KT P6SM VCSH OVC050
KZSE FIR / North America



MET'MAP, your aeronautical weather chart ! - Copyright ORBIFLY December 2007 - Disclaimer

ORBIFLY MET'MAP TEAM :

Programming & Development : Alexandra Zaïnal
Original concept : Baudouin d'Aumeries
Technical & hardware support : Manuel Goepfert
Assistance : Marc-Olivier Méhu




SOURCES & CREDITS :

   NOAA       Earth
Advisory